Airfield :
LOGIN :

Register | Disclaimer

   EN    FR    IT 

 










Legend :    VFR   Marginal VFR   IFR   Intensive IFR   Very Intensive IFR
Visi :
Ceiling :
>= 8 km
>= 3000ft
5 to 8 km
1000 to 3000 ft
1500m to 5 km
500 to 1000 ft
800 to 1500m
200 to 500 ft
< 800m
< 200 ft
Symbols :   Thunderstorms  Fog  Heavy snow  Heavy precipitations  Wind > 20 kt
SIGMETs :     Misc.  Thunderstorms  Icing  Turbulence  Mountain Waves  Volcanic Ashes






- Airport Elevation : 194 ft


EBCV - Chièvres

CURRENT METAR :
  • 070755Z AUTO 21003KT 9999 NCD 27/15 Q1019 BLU

EXPIRED METARs :
  • 070725Z AUTO VRB02KT 9999 NCD 25/15 Q1020 BLU
  • 070655Z AUTO VRB01KT 9999 NCD 25/15 Q1019 BLU
  • 070625Z AUTO 00000KT 9999 NCD 24/14 Q1019 BLU
  • 070555Z AUTO VRB01KT 9999 NCD 22/14 Q1019 BLU

TAF TAF EBCV
Valid from the 07 at 07:00 until the 07 at 16:00 UTC


070541Z 0707/0716 VRB03KT 9999 SKC BY EBWM



MET'MAP, your aeronautical weather chart ! - Copyright ORBIFLY December 2007 - Disclaimer

ORBIFLY MET'MAP TEAM :

Programming & Development : Alexandra Zaïnal
Concept & original design : Baudouin d'Aumeries
Assistance for programming : Marc-Olivier Méhu
Technical & hardware support : Manuel Goepfert

Contact : metmap@orbifly.com




SOURCES & CREDITS :

   NOAA